Time;durP1;ratioP1;P1;durP2;ratioP2;P2;SDS_P1;SDS_P2;PMS_P1;PMS_P2;Temp;Humidity;BMP_temperature;BMP_pressure;BME280_temperature;BME280_humidity;BME280_pressure;Samples;Min_cycle;Max_cycle;Signal;HPM_P1;HPM_P2
2023/12/07 00:00:51;;;;;;;22.73;8.90;;;0.20;99.90;;;;;;4994059;28;20038;-75
2023/12/07 00:03:16;;;;;;;32.35;9.13;;;0.20;99.90;;;;;;4994053;28;20041;-75
2023/12/07 00:05:42;;;;;;;48.47;10.80;;;0.10;99.90;;;;;;4993560;28;20100;-74
2023/12/07 00:08:11;;;;;;;33.63;10.15;;;0.20;99.90;;;;;;4992687;28;20022;-74
2023/12/07 00:10:36;;;;;;;29.67;10.25;;;0.10;99.90;;;;;;4993954;28;20031;-74
2023/12/07 00:13:02;;;;;;;38.65;9.95;;;0.10;99.90;;;;;;4994032;28;20109;-74
2023/12/07 00:15:28;;;;;;;36.33;8.93;;;0.00;99.90;;;;;;4976478;28;20018;-73
2023/12/07 00:17:53;;;;;;;38.33;9.90;;;0.00;99.90;;;;;;4976130;28;20023;-74
2023/12/07 00:20:19;;;;;;;35.83;10.32;;;0.00;99.90;;;;;;4993737;28;20106;-75
2023/12/07 00:22:45;;;;;;;31.35;9.57;;;0.10;99.90;;;;;;4993436;28;20022;-75
2023/12/07 00:25:11;;;;;;;18.10;7.90;;;0.00;99.90;;;;;;4976180;28;20027;-74
2023/12/07 00:27:37;;;;;;;24.55;9.30;;;0.40;99.90;;;;;;4993209;28;20026;-74
2023/12/07 00:30:03;;;;;;;48.67;10.65;;;0.10;99.90;;;;;;4993484;28;20041;-74
2023/12/07 00:32:29;;;;;;;18.63;8.88;;;0.00;99.90;;;;;;4992183;28;20092;-74
2023/12/07 00:34:54;;;;;;;18.40;8.13;;;0.00;99.90;;;;;;4993518;28;20062;-74
2023/12/07 00:37:20;;;;;;;23.98;8.52;;;0.00;99.90;;;;;;4993190;28;20069;-74
2023/12/07 00:39:46;;;;;;;31.20;9.57;;;0.00;99.90;;;;;;4993853;28;20038;-75
2023/12/07 00:42:11;;;;;;;21.45;9.80;;;-0.10;99.90;;;;;;4992827;28;20154;-75
2023/12/07 00:44:41;;;;;;;20.70;8.77;;;-0.10;99.90;;;;;;4975891;28;20030;-74
2023/12/07 00:47:07;;;;;;;37.92;9.18;;;-0.10;99.90;;;;;;4992904;28;20026;-74
2023/12/07 00:49:33;;;;;;;30.27;9.05;;;-0.10;99.90;;;;;;4993475;28;20472;-74
2023/12/07 00:51:58;;;;;;;14.65;7.35;;;-0.10;99.90;;;;;;4993208;28;20085;-74
2023/12/07 00:54:24;;;;;;;28.23;8.93;;;-0.10;99.90;;;;;;4975861;28;20019;-74
2023/12/07 00:56:50;;;;;;;16.05;6.95;;;-0.10;99.90;;;;;;4975299;28;20377;-74
2023/12/07 00:59:15;;;;;;;18.95;8.77;;;-0.20;99.90;;;;;;4975717;28;20117;-74
2023/12/07 01:01:41;;;;;;;17.02;8.15;;;-0.20;99.90;;;;;;4975605;28;20034;-74
2023/12/07 01:04:06;;;;;;;35.65;9.15;;;-0.20;99.90;;;;;;4993096;28;20041;-75
2023/12/07 01:06:32;;;;;;;26.13;8.35;;;-0.10;99.90;;;;;;4992581;28;20066;-74
2023/12/07 01:08:57;;;;;;;17.17;8.30;;;-0.20;99.90;;;;;;4992948;28;20068;-74
2023/12/07 01:11:23;;;;;;;26.05;8.95;;;-0.10;99.90;;;;;;4992983;28;20242;-74
2023/12/07 01:13:49;;;;;;;14.82;7.40;;;-0.20;99.90;;;;;;4975467;28;20117;-74
2023/12/07 01:16:14;;;;;;;13.70;7.15;;;-0.20;99.90;;;;;;4975028;28;20038;-75
2023/12/07 01:18:40;;;;;;;12.98;7.07;;;-0.20;99.90;;;;;;4992815;28;20396;-75
2023/12/07 01:21:06;;;;;;;15.88;7.43;;;-0.30;99.90;;;;;;4975629;28;20026;-74
2023/12/07 01:23:32;;;;;;;21.00;7.38;;;-0.30;99.90;;;;;;4992845;28;20030;-74
2023/12/07 01:26:00;;;;;;;12.05;6.57;;;-0.30;99.90;;;;;;4974765;28;20515;-74
2023/12/07 01:28:25;;;;;;;16.35;6.47;;;-0.40;99.90;;;;;;4975204;28;20436;-74
2023/12/07 01:30:51;;;;;;;21.58;7.13;;;-0.40;99.90;;;;;;4975312;28;20077;-74
2023/12/07 01:33:17;;;;;;;24.35;7.47;;;-0.40;99.90;;;;;;4992635;28;20031;-74
2023/12/07 01:35:42;;;;;;;17.65;7.60;;;-0.40;99.90;;;;;;4974939;28;20503;-75
2023/12/07 01:38:08;;;;;;;18.73;7.47;;;-0.50;99.90;;;;;;4992611;28;20037;-75
2023/12/07 01:40:34;;;;;;;14.18;7.05;;;-0.40;99.90;;;;;;4975174;28;20389;-74
2023/12/07 01:43:00;;;;;;;14.50;7.50;;;0.40;99.90;;;;;;4975433;28;20501;-74
2023/12/07 01:45:25;;;;;;;13.80;6.18;;;-0.50;99.90;;;;;;4992573;28;20033;-74
2023/12/07 01:47:52;;;;;;;12.50;6.90;;;-0.50;99.90;;;;;;4992426;28;20073;-74
2023/12/07 01:50:26;;;;;;;12.40;6.88;;;-0.50;99.90;;;;;;4992618;28;20080;-74
2023/12/07 01:52:59;;;;;;;10.30;5.95;;;-0.50;99.90;;;;;;4974859;28;20027;-74
2023/12/07 01:55:26;;;;;;;12.88;6.68;;;-0.50;99.90;;;;;;4996300;28;20029;-75
2023/12/07 01:57:52;;;;;;;14.80;7.95;;;-0.50;99.90;;;;;;4978954;28;20117;-74
2023/12/07 02:00:19;;;;;;;17.10;7.15;;;-0.50;99.90;;;;;;4996659;28;20444;-74
2023/12/07 02:02:46;;;;;;;14.82;6.70;;;-0.60;99.90;;;;;;4996284;28;20033;-74
2023/12/07 02:05:13;;;;;;;13.88;7.47;;;-0.60;99.90;;;;;;4978730;28;20034;-74
2023/12/07 02:07:41;;;;;;;28.52;7.35;;;-0.70;99.90;;;;;;4995553;28;20399;-74
2023/12/07 02:10:07;;;;;;;23.17;8.48;;;-0.70;99.90;;;;;;4996151;28;20018;-74
2023/12/07 02:12:34;;;;;;;13.73;6.35;;;-0.60;99.90;;;;;;4996811;28;20038;-75
2023/12/07 02:15:01;;;;;;;19.50;7.22;;;-0.70;99.90;;;;;;4997116;28;20085;-74
2023/12/07 02:17:43;;;;;;;13.90;6.93;;;-0.70;99.90;;;;;;4996691;28;20031;-75
2023/12/07 02:20:16;;;;;;;15.55;6.03;;;-0.70;99.90;;;;;;4997635;28;20534;-74
2023/12/07 02:22:46;;;;;;;19.55;6.22;;;-0.70;99.90;;;;;;4980031;28;20041;-74
2023/12/07 02:25:14;;;;;;;18.10;7.10;;;-0.80;99.90;;;;;;4979640;28;20026;-74
2023/12/07 02:27:42;;;;;;;16.13;6.85;;;-0.80;99.90;;;;;;4996698;28;20118;-74
2023/12/07 02:30:09;;;;;;;13.75;6.85;;;-0.90;99.90;;;;;;4995760;28;20023;-74
2023/12/07 02:32:39;;;;;;;21.83;6.70;;;-0.90;99.90;;;;;;4995817;28;20109;-74
2023/12/07 02:35:09;;;;;;;13.90;6.88;;;-0.90;99.90;;;;;;4996675;28;20022;-74
2023/12/07 02:37:43;;;;;;;12.70;5.95;;;-0.90;99.90;;;;;;4995680;28;20026;-74
2023/12/07 02:40:10;;;;;;;17.58;6.95;;;-0.90;99.90;;;;;;4995773;28;20026;-74
2023/12/07 02:42:39;;;;;;;12.93;6.18;;;-1.00;99.90;;;;;;4978142;28;20069;-74
2023/12/07 02:45:06;;;;;;;11.00;6.45;;;-1.10;99.90;;;;;;4994269;28;20033;-74
2023/12/07 02:47:31;;;;;;;11.25;5.47;;;-1.00;99.90;;;;;;4977695;28;20026;-74
2023/12/07 02:49:57;;;;;;;10.02;6.18;;;-1.00;99.90;;;;;;4995626;28;20018;-74
2023/12/07 02:52:23;;;;;;;10.85;6.32;;;-1.10;99.90;;;;;;4995461;28;20396;-74
2023/12/07 02:54:48;;;;;;;14.15;6.43;;;-1.10;99.90;;;;;;4995515;28;20018;-74
2023/12/07 02:57:14;;;;;;;14.20;6.18;;;-1.10;99.90;;;;;;4994932;28;20035;-74
2023/12/07 02:59:40;;;;;;;10.85;6.00;;;-1.10;99.90;;;;;;4995247;28;20033;-74
2023/12/07 03:02:06;;;;;;;11.43;6.43;;;-1.00;99.90;;;;;;4995293;28;20030;-74
2023/12/07 03:04:32;;;;;;;9.57;5.22;;;-1.00;99.90;;;;;;4994582;28;20026;-74
2023/12/07 03:06:58;;;;;;;8.90;6.15;;;-1.00;99.90;;;;;;4994710;28;20110;-74
2023/12/07 03:09:24;;;;;;;11.80;6.63;;;-1.00;99.90;;;;;;4995073;28;20102;-74
2023/12/07 03:11:50;;;;;;;11.25;5.82;;;-1.00;99.90;;;;;;4977615;28;20052;-74
2023/12/07 03:14:16;;;;;;;12.07;6.53;;;-1.00;99.90;;;;;;4995026;28;20038;-74
2023/12/07 03:16:41;;;;;;;10.98;6.47;;;-1.00;99.90;;;;;;4994554;28;20637;-74
2023/12/07 03:19:07;;;;;;;12.32;7.03;;;-1.00;99.90;;;;;;4977513;28;20026;-74
2023/12/07 03:21:33;;;;;;;8.95;5.65;;;-1.00;99.90;;;;;;4994786;28;20070;-74
2023/12/07 03:23:58;;;;;;;10.48;5.22;;;-0.90;99.90;;;;;;4994595;28;20030;-75
2023/12/07 03:26:24;;;;;;;9.02;5.88;;;-0.90;99.90;;;;;;4994448;28;20030;-74
2023/12/07 03:28:49;;;;;;;8.70;5.97;;;-0.90;99.90;;;;;;4994591;28;20069;-74
2023/12/07 03:31:15;;;;;;;10.73;6.07;;;-0.80;99.90;;;;;;4994780;28;20030;-74
2023/12/07 03:33:42;;;;;;;11.95;5.85;;;-0.80;99.90;;;;;;4977208;28;20033;-74
2023/12/07 03:36:11;;;;;;;7.90;5.07;;;-0.80;99.90;;;;;;4994122;28;20022;-74
2023/12/07 03:38:36;;;;;;;17.38;6.82;;;-0.80;99.90;;;;;;4994555;28;20108;-74
2023/12/07 03:41:02;;;;;;;14.73;7.90;;;-0.90;99.90;;;;;;4994449;28;20038;-74
2023/12/07 03:43:27;;;;;;;13.82;6.72;;;-0.90;99.90;;;;;;4994499;28;20407;-74
2023/12/07 03:45:53;;;;;;;9.25;5.22;;;-0.90;99.90;;;;;;4993936;28;20034;-74
2023/12/07 03:48:19;;;;;;;8.43;4.47;;;-0.90;99.90;;;;;;4994245;28;20037;-74
2023/12/07 03:50:44;;;;;;;8.98;5.53;;;-0.90;99.90;;;;;;4976740;28;20057;-74
2023/12/07 03:53:10;;;;;;;10.63;6.65;;;-0.90;99.90;;;;;;4994382;28;20098;-74
2023/12/07 03:55:36;;;;;;;12.82;6.32;;;-0.80;99.90;;;;;;4976625;28;20373;-74
2023/12/07 03:58:02;;;;;;;10.02;5.88;;;-0.90;99.90;;;;;;4976631;28;20030;-74
2023/12/07 04:00:28;;;;;;;8.23;5.00;;;-0.80;99.90;;;;;;4976753;28;20034;-74
2023/12/07 04:02:53;;;;;;;8.18;4.88;;;-0.90;99.90;;;;;;4994114;28;20034;-74
2023/12/07 04:05:19;;;;;;;9.23;5.68;;;-0.90;99.90;;;;;;4994114;28;20062;-75
2023/12/07 04:07:44;;;;;;;9.07;5.88;;;-0.90;99.90;;;;;;4976146;28;20053;-74
2023/12/07 04:10:10;;;;;;;9.18;6.13;;;-0.80;99.90;;;;;;4976922;28;20054;-74
2023/12/07 04:12:36;;;;;;;9.18;5.80;;;-0.80;99.90;;;;;;4994375;28;20072;-74
2023/12/07 04:15:02;;;;;;;8.90;5.93;;;-0.80;99.90;;;;;;4994319;28;20549;-74
2023/12/07 04:17:28;;;;;;;10.10;5.57;;;-0.80;99.90;;;;;;4975294;28;20038;-74
2023/12/07 04:19:53;;;;;;;7.80;4.85;;;-0.80;99.90;;;;;;4993752;28;20152;-75
2023/12/07 04:22:19;;;;;;;8.73;5.25;;;-0.90;99.90;;;;;;4976568;28;20117;-74
2023/12/07 04:24:45;;;;;;;10.32;5.85;;;-0.90;99.90;;;;;;4994173;28;20029;-75
2023/12/07 04:27:11;;;;;;;11.13;6.05;;;-0.90;99.90;;;;;;4980335;28;20026;-74
2023/12/07 04:29:36;;;;;;;11.07;5.57;;;-0.90;99.90;;;;;;4998864;28;20100;-75
2023/12/07 04:32:02;;;;;;;11.75;4.95;;;-0.90;99.90;;;;;;4999132;28;20023;-75
2023/12/07 04:34:27;;;;;;;11.32;6.10;;;-1.00;99.90;;;;;;4980748;28;20029;-75
2023/12/07 04:36:53;;;;;;;8.23;5.30;;;-1.00;99.90;;;;;;4999015;28;20037;-75
2023/12/07 04:39:19;;;;;;;9.25;5.90;;;-1.00;99.90;;;;;;4981599;28;20432;-74
2023/12/07 04:41:44;;;;;;;12.25;5.07;;;-0.90;99.90;;;;;;5000129;28;20065;-75
2023/12/07 04:44:10;;;;;;;8.10;5.10;;;-0.90;99.90;;;;;;4983838;28;20030;-75
2023/12/07 04:46:36;;;;;;;8.32;4.70;;;-1.00;99.90;;;;;;5000836;28;20033;-75
2023/12/07 04:49:01;;;;;;;11.65;4.93;;;-1.00;99.90;;;;;;5002046;28;20019;-75
2023/12/07 04:51:27;;;;;;;9.77;5.85;;;-1.10;99.90;;;;;;5003256;28;20061;-75
2023/12/07 04:53:52;;;;;;;10.27;5.05;;;-1.10;99.90;;;;;;5003647;28;20037;-75
2023/12/07 04:56:18;;;;;;;14.73;5.43;;;-1.10;99.90;;;;;;4984856;28;20033;-75
2023/12/07 04:58:44;;;;;;;8.05;5.00;;;-1.20;99.90;;;;;;5004295;28;20101;-75
2023/12/07 05:01:09;;;;;;;13.35;7.03;;;-1.10;99.90;;;;;;5003517;28;20027;-75
2023/12/07 05:03:35;;;;;;;10.93;6.95;;;-1.20;99.90;;;;;;4985756;28;20034;-75
2023/12/07 05:06:01;;;;;;;17.05;7.13;;;-1.20;99.90;;;;;;4986706;28;20077;-75
2023/12/07 05:08:26;;;;;;;7.97;5.10;;;-1.20;99.90;;;;;;4981938;28;20031;-74
2023/12/07 05:10:53;;;;;;;7.38;4.63;;;-1.30;99.90;;;;;;4977795;28;20022;-75
2023/12/07 05:13:18;;;;;;;9.18;4.55;;;-1.30;99.90;;;;;;4994983;28;20027;-74
2023/12/07 05:18:09;;;;;;;7.65;4.93;;;-1.40;99.90;;;;;;4986129;23;20057;-75
2023/12/07 05:20:38;;;;;;;7.18;4.85;;;-1.30;99.90;;;;;;4956187;28;20082;-75
2023/12/07 05:23:04;;;;;;;5.60;4.20;;;-1.30;99.90;;;;;;4973429;28;20096;-74
2023/12/07 05:25:30;;;;;;;6.25;4.03;;;-1.40;99.90;;;;;;4973467;28;20572;-75
2023/12/07 05:27:57;;;;;;;5.95;3.80;;;-1.40;99.90;;;;;;4972884;28;20117;-74
2023/12/07 05:30:23;;;;;;;7.15;3.60;;;-1.40;99.90;;;;;;4956544;28;20401;-75
2023/12/07 05:32:48;;;;;;;8.10;4.22;;;-1.40;99.90;;;;;;4955971;28;20023;-74
2023/12/07 05:35:14;;;;;;;8.45;3.85;;;-1.40;99.90;;;;;;4973237;28;20046;-73
2023/12/07 05:37:40;;;;;;;8.63;3.50;;;-1.40;99.90;;;;;;4972924;28;20030;-75
2023/12/07 05:40:06;;;;;;;6.45;3.95;;;-1.40;99.90;;;;;;4955944;28;20031;-75
2023/12/07 05:42:32;;;;;;;6.80;4.22;;;-1.40;99.90;;;;;;4955946;28;20034;-75
2023/12/07 05:44:58;;;;;;;6.10;4.00;;;-1.30;99.90;;;;;;4955867;28;20042;-75
2023/12/07 05:47:23;;;;;;;14.38;3.63;;;-1.40;99.90;;;;;;4972809;28;20031;-75
2023/12/07 05:49:49;;;;;;;4.80;3.72;;;-1.80;99.90;;;;;;4973324;28;20114;-75
2023/12/07 05:52:14;;;;;;;6.15;3.67;;;-1.40;99.90;;;;;;4973204;28;20059;-75
2023/12/07 05:54:42;;;;;;;11.48;4.95;;;-1.50;99.90;;;;;;4973209;28;20070;-76
2023/12/07 05:57:07;;;;;;;12.98;6.00;;;-1.50;99.90;;;;;;4972867;28;20481;-76
2023/12/07 05:59:38;;;;;;;8.40;4.63;;;-1.50;99.90;;;;;;4973153;28;20031;-76
2023/12/07 06:02:04;;;;;;;9.82;5.03;;;-1.60;99.90;;;;;;4955854;28;20038;-76
2023/12/07 06:04:30;;;;;;;6.05;4.20;;;-1.70;99.90;;;;;;4973062;28;20069;-75
2023/12/07 06:06:55;;;;;;;6.45;3.85;;;-1.70;99.90;;;;;;4972685;28;20023;-75
2023/12/07 06:09:21;;;;;;;8.98;5.00;;;-1.70;99.90;;;;;;4972970;28;20027;-75
2023/12/07 06:11:47;;;;;;;9.35;4.00;;;-1.80;99.90;;;;;;4955886;28;20393;-73
2023/12/07 06:14:12;;;;;;;10.77;6.05;;;-1.90;99.90;;;;;;4972977;28;20023;-75
2023/12/07 06:16:38;;;;;;;8.55;4.05;;;-1.90;99.90;;;;;;4972864;28;20074;-75
2023/12/07 06:19:03;;;;;;;6.20;4.00;;;-2.00;99.90;;;;;;4973303;28;20031;-75
2023/12/07 06:21:30;;;;;;;7.40;4.50;;;-2.00;99.90;;;;;;4970079;28;20091;-75
2023/12/07 06:23:56;;;;;;;7.10;4.53;;;-2.00;99.90;;;;;;4956622;28;20110;-74
2023/12/07 06:26:22;;;;;;;6.35;3.95;;;-1.40;99.90;;;;;;4952947;29;20078;-76
2023/12/07 06:28:48;;;;;;;6.65;4.65;;;-1.30;99.90;;;;;;4953619;29;20023;-77
2023/12/07 06:31:15;;;;;;;7.05;4.22;;;-1.60;99.90;;;;;;4956430;29;20107;-75
2023/12/07 06:33:41;;;;;;;5.68;3.83;;;-1.70;99.90;;;;;;4955401;29;20021;-74
2023/12/07 06:36:07;;;;;;;9.13;4.30;;;-1.80;99.90;;;;;;4952398;29;20591;-76
2023/12/07 06:38:33;;;;;;;12.43;5.45;;;-1.90;99.90;;;;;;4952581;28;20023;-76
2023/12/07 06:40:58;;;;;;;14.48;6.68;;;-2.00;99.90;;;;;;4955588;29;20517;-75
2023/12/07 06:43:24;;;;;;;10.40;5.10;;;-1.60;99.90;;;;;;4956367;29;20074;-75
2023/12/07 06:45:50;;;;;;;11.25;4.50;;;-2.00;99.90;;;;;;4955741;29;20023;-77
2023/12/07 06:48:16;;;;;;;10.02;3.53;;;-2.00;99.90;;;;;;4959582;28;20379;-75
2023/12/07 06:50:41;;;;;;;9.13;3.60;;;-2.00;99.90;;;;;;4973509;28;20030;-74
2023/12/07 06:53:07;;;;;;;7.53;3.63;;;-2.10;99.90;;;;;;4959236;28;20030;-76
2023/12/07 06:55:32;;;;;;;4.93;3.28;;;-2.10;99.90;;;;;;4974948;28;20074;-76
2023/12/07 06:57:58;;;;;;;9.10;4.18;;;-2.10;99.90;;;;;;4975895;28;20033;-75
2023/12/07 07:00:24;;;;;;;6.57;4.15;;;-2.20;99.90;;;;;;4958990;28;20038;-75
2023/12/07 07:02:50;;;;;;;6.85;4.70;;;-2.20;99.90;;;;;;4958644;28;20023;-75
2023/12/07 07:05:16;;;;;;;8.80;4.00;;;-2.20;99.90;;;;;;4976118;28;20031;-75
2023/12/07 07:07:41;;;;;;;16.98;8.27;;;-2.20;99.90;;;;;;4975438;28;20027;-76
2023/12/07 07:10:09;;;;;;;13.32;8.32;;;-2.20;99.90;;;;;;4958712;28;20031;-75
2023/12/07 07:12:35;;;;;;;29.08;12.82;;;-2.10;99.90;;;;;;4976065;28;20385;-76
2023/12/07 07:15:01;;;;;;;22.75;11.75;;;-2.10;99.90;;;;;;4975871;28;20037;-75
2023/12/07 07:17:28;;;;;;;23.70;11.43;;;-2.00;99.90;;;;;;4975473;28;20062;-75
2023/12/07 07:19:55;;;;;;;18.80;9.57;;;-2.00;99.90;;;;;;4958939;28;20091;-75
2023/12/07 07:22:21;;;;;;;12.35;6.93;;;-2.00;99.90;;;;;;4964636;28;20118;-75
2023/12/07 07:24:47;;;;;;;9.40;5.30;;;-2.00;99.90;;;;;;4975506;28;20110;-75
2023/12/07 07:27:13;;;;;;;5.63;4.75;;;-2.00;99.90;;;;;;4975275;28;20033;-75
2023/12/07 07:29:38;;;;;;;14.90;4.95;;;-1.90;99.90;;;;;;4976046;28;20020;-75
2023/12/07 07:32:05;;;;;;;6.75;3.78;;;-1.90;99.90;;;;;;4950269;28;20027;-75
2023/12/07 07:34:31;;;;;;;7.63;3.92;;;-1.80;99.90;;;;;;4941701;29;20110;-76
2023/12/07 07:36:57;;;;;;;6.38;3.80;;;-1.70;99.90;;;;;;4943684;28;20532;-76
2023/12/07 07:39:23;;;;;;;10.30;5.05;;;-1.60;99.90;;;;;;4956127;28;20054;-75
2023/12/07 07:41:48;;;;;;;9.32;4.75;;;-1.60;99.90;;;;;;4972858;28;20019;-75
2023/12/07 07:44:14;;;;;;;13.57;5.18;;;-1.70;99.90;;;;;;4976346;28;20503;-75
2023/12/07 07:46:43;;;;;;;10.07;5.47;;;-1.70;99.90;;;;;;4975387;28;20034;-75
2023/12/07 07:49:08;;;;;;;8.48;4.43;;;-1.70;99.90;;;;;;4975565;28;20026;-75
2023/12/07 07:51:34;;;;;;;7.07;4.30;;;-1.60;99.90;;;;;;4975846;28;20440;-76
2023/12/07 07:54:00;;;;;;;10.18;4.55;;;-1.50;99.90;;;;;;4975813;28;20026;-76
2023/12/07 07:56:26;;;;;;;8.65;4.97;;;-1.50;99.90;;;;;;4975675;28;20476;-78
2023/12/07 07:58:51;;;;;;;10.57;4.47;;;-1.50;99.90;;;;;;4975869;28;20085;-75
2023/12/07 08:01:17;;;;;;;7.88;3.60;;;-1.30;99.90;;;;;;4976187;28;20027;-76
2023/12/07 08:03:42;;;;;;;7.57;4.55;;;-1.20;99.90;;;;;;4975234;28;20656;-75
2023/12/07 08:06:08;;;;;;;10.43;4.25;;;-1.20;99.90;;;;;;4975093;28;20030;-76
2023/12/07 08:08:34;;;;;;;10.23;4.07;;;-1.10;99.90;;;;;;4974957;28;20027;-76
2023/12/07 08:11:01;;;;;;;8.98;4.60;;;-1.00;99.90;;;;;;4975339;28;20057;-77
2023/12/07 08:13:27;;;;;;;7.68;4.40;;;-1.00;99.90;;;;;;4957515;28;20571;-77
2023/12/07 08:15:53;;;;;;;7.93;4.43;;;-0.90;99.90;;;;;;4973467;28;20034;-74
2023/12/07 08:18:19;;;;;;;10.23;4.72;;;-0.90;99.90;;;;;;4975324;28;20031;-75
2023/12/07 08:20:45;;;;;;;8.50;4.72;;;-0.80;99.90;;;;;;4975741;28;20031;-76
2023/12/07 08:23:11;;;;;;;13.93;4.85;;;-0.70;99.90;;;;;;4975587;28;20106;-76
2023/12/07 08:25:39;;;;;;;9.52;4.80;;;-0.60;99.90;;;;;;4957346;28;20207;-75
2023/12/07 08:28:05;;;;;;;8.85;4.55;;;-0.40;99.90;;;;;;4974018;28;20030;-76
2023/12/07 08:30:30;;;;;;;7.72;4.47;;;-0.10;99.90;;;;;;4956716;28;20027;-75
2023/12/07 08:32:56;;;;;;;8.35;5.47;;;0.10;99.90;;;;;;4974727;28;20400;-76
2023/12/07 08:35:22;;;;;;;13.38;5.95;;;0.30;99.90;;;;;;4957358;28;20030;-76
2023/12/07 08:37:48;;;;;;;10.98;6.32;;;0.50;99.90;;;;;;4973920;28;20030;-76
2023/12/07 08:40:15;;;;;;;6.53;3.67;;;0.60;99.90;;;;;;4974211;28;20031;-77
2023/12/07 08:42:43;;;;;;;4.07;2.90;;;0.90;99.90;;;;;;4957396;28;20113;-77
2023/12/07 08:45:09;;;;;;;4.15;2.50;;;1.70;99.90;;;;;;4974698;28;20031;-76
2023/12/07 08:47:35;;;;;;;6.13;3.53;;;1.90;99.90;;;;;;4956555;28;20033;-76
2023/12/07 08:50:01;;;;;;;6.25;2.80;;;2.10;99.90;;;;;;4957003;28;20058;-74
2023/12/07 08:52:27;;;;;;;4.72;3.33;;;2.30;99.90;;;;;;4974076;28;20054;-75
2023/12/07 08:54:52;;;;;;;8.85;3.47;;;2.50;99.90;;;;;;4972995;28;20110;-76
2023/12/07 08:57:18;;;;;;;7.68;3.65;;;2.70;99.90;;;;;;4973743;28;20031;-76
2023/12/07 08:59:44;;;;;;;5.88;3.65;;;2.80;99.90;;;;;;4956988;28;20031;-75
2023/12/07 09:02:09;;;;;;;5.80;3.08;;;2.90;99.90;;;;;;4973856;28;20081;-76
2023/12/07 09:04:35;;;;;;;6.47;3.78;;;2.80;99.90;;;;;;4974112;28;20027;-76
2023/12/07 09:07:01;;;;;;;5.80;3.33;;;3.20;99.90;;;;;;4973565;28;20063;-77
2023/12/07 09:09:26;;;;;;;5.35;3.55;;;2.80;99.90;;;;;;4956670;28;20026;-76
2023/12/07 09:11:53;;;;;;;5.68;3.63;;;3.30;99.90;;;;;;4957059;28;20027;-78
2023/12/07 09:14:18;;;;;;;7.90;3.50;;;3.40;99.90;;;;;;4974106;28;20050;-76
2023/12/07 09:16:45;;;;;;;4.65;2.85;;;3.40;99.90;;;;;;4973584;28;20117;-75
2023/12/07 09:19:14;;;;;;;7.20;3.75;;;3.30;99.90;;;;;;4972909;28;20515;-76
2023/12/07 09:21:42;;;;;;;5.85;3.10;;;3.30;99.90;;;;;;4973913;28;20034;-76
2023/12/07 09:24:08;;;;;;;4.70;2.70;;;3.30;99.90;;;;;;4956565;28;20493;-74
2023/12/07 09:26:34;;;;;;;6.88;3.83;;;3.60;99.90;;;;;;4956289;28;20031;-76
2023/12/07 09:28:59;;;;;;;4.82;3.20;;;3.60;99.90;;;;;;4973422;28;20074;-76
2023/12/07 09:31:25;;;;;;;5.72;3.42;;;3.60;99.90;;;;;;4972394;28;20082;-77
2023/12/07 09:33:53;;;;;;;9.02;4.18;;;3.60;99.90;;;;;;4956353;28;20030;-76
2023/12/07 09:36:21;;;;;;;6.80;3.25;;;3.80;99.90;;;;;;4973409;28;20030;-76
2023/12/07 09:38:47;;;;;;;6.18;2.95;;;3.90;99.60;;;;;;4973999;28;20031;-75
2023/12/07 09:41:13;;;;;;;4.28;2.72;;;3.60;98.10;;;;;;4956398;28;20027;-74
2023/12/07 09:43:39;;;;;;;4.70;2.40;;;4.30;99.90;;;;;;4973502;28;20023;-76
2023/12/07 09:46:06;;;;;;;3.63;2.78;;;4.10;99.90;;;;;;4955972;28;20035;-75
2023/12/07 09:48:32;;;;;;;6.65;2.65;;;4.30;97.50;;;;;;4973643;28;20042;-76
2023/12/07 09:51:00;;;;;;;7.00;2.63;;;5.60;96.90;;;;;;4973998;28;20481;-78
2023/12/07 09:53:29;;;;;;;3.85;1.98;;;4.60;96.70;;;;;;4956124;28;20026;-76
2023/12/07 09:55:54;;;;;;;2.85;1.75;;;3.90;96.00;;;;;;4955823;28;20027;-75
2023/12/07 09:58:20;;;;;;;2.97;2.17;;;4.80;95.00;;;;;;4956539;28;20031;-77
2023/12/07 10:00:47;;;;;;;3.60;2.22;;;5.80;94.20;;;;;;4972136;28;20023;-77
2023/12/07 10:03:22;;;;;;;3.53;2.08;;;4.60;94.50;;;;;;4973569;28;20110;-75
2023/12/07 10:05:59;;;;;;;4.03;1.60;;;4.50;94.60;;;;;;4956022;28;20555;-76
2023/12/07 10:08:37;;;;;;;3.88;2.25;;;4.70;93.70;;;;;;4974105;28;20393;-76
2023/12/07 10:11:06;;;;;;;3.45;1.45;;;4.60;93.60;;;;;;4972396;28;20512;-77
2023/12/07 10:13:33;;;;;;;2.10;1.50;;;4.80;92.70;;;;;;4956073;28;20489;-78
2023/12/07 10:16:14;;;;;;;2.03;0.77;;;4.90;91.80;;;;;;4958757;28;20027;-76
2023/12/07 10:18:40;;;;;;;1.73;1.35;;;5.40;91.60;;;;;;4959821;28;20489;-76
2023/12/07 10:21:09;;;;;;;1.15;1.00;;;4.70;91.30;;;;;;4977477;28;20058;-77
2023/12/07 10:23:35;;;;;;;1.20;1.05;;;4.40;91.10;;;;;;4959629;28;20456;-76
2023/12/07 10:26:01;;;;;;;1.98;1.38;;;5.10;91.70;;;;;;4975430;28;20023;-76
2023/12/07 10:28:27;;;;;;;1.45;1.15;;;5.80;92.00;;;;;;4977362;28;20074;-75
2023/12/07 10:30:53;;;;;;;1.02;0.75;;;6.10;91.60;;;;;;4959553;28;20022;-74
2023/12/07 10:33:20;;;;;;;1.30;1.20;;;5.20;91.10;;;;;;4976656;28;20027;-77
2023/12/07 10:35:48;;;;;;;1.10;0.80;;;5.30;90.50;;;;;;4977403;28;20023;-75
2023/12/07 10:38:14;;;;;;;1.30;0.88;;;5.50;90.60;;;;;;4976099;28;20031;-76
2023/12/07 10:40:40;;;;;;;1.17;0.90;;;6.10;90.20;;;;;;4959801;28;20093;-76
2023/12/07 10:43:07;;;;;;;2.13;1.30;;;6.00;88.40;;;;;;4959439;28;20401;-77
2023/12/07 10:45:34;;;;;;;0.63;0.63;;;5.40;88.90;;;;;;4959982;28;20022;-77
2023/12/07 10:48:08;;;;;;;1.20;0.82;;;5.80;89.20;;;;;;4976581;28;20022;-76
2023/12/07 10:50:36;;;;;;;0.90;0.88;;;5.50;87.30;;;;;;4958685;28;20111;-76
2023/12/07 10:53:30;;;;;;;0.80;0.80;;;5.40;86.20;;;;;;4976589;28;20027;-75
2023/12/07 10:55:59;;;;;;;0.70;0.70;;;5.50;87.40;;;;;;4957560;28;20199;-76
2023/12/07 10:58:26;;;;;;;0.60;0.60;;;5.60;87.10;;;;;;4959425;28;20022;-76
2023/12/07 11:00:55;;;;;;;1.33;1.05;;;5.90;85.90;;;;;;4976425;28;20019;-76
2023/12/07 11:03:21;;;;;;;1.35;1.25;;;5.60;84.80;;;;;;4976919;28;20024;-76
2023/12/07 11:05:48;;;;;;;0.73;0.73;;;6.30;84.10;;;;;;4958741;28;20031;-76
2023/12/07 11:08:27;;;;;;;1.35;0.80;;;5.80;83.40;;;;;;4976322;28;20030;-76
2023/12/07 11:11:26;;;;;;;0.80;0.80;;;5.70;83.90;;;;;;4958869;28;20066;-77
2023/12/07 11:13:58;;;;;;;1.10;0.95;;;5.80;82.90;;;;;;4974425;28;20039;-75
2023/12/07 11:16:37;;;;;;;3.15;0.90;;;5.60;83.80;;;;;;4976153;28;20060;-76
2023/12/07 11:19:23;;;;;;;1.20;0.88;;;5.90;82.00;;;;;;4976984;28;20025;-77
2023/12/07 11:21:49;;;;;;;1.40;1.05;;;6.00;83.10;;;;;;4976718;28;20026;-76
2023/12/07 11:24:17;;;;;;;2.50;1.02;;;6.00;82.60;;;;;;4976052;28;20034;-76
2023/12/07 11:26:44;;;;;;;0.57;0.57;;;6.10;81.40;;;;;;4974824;28;20048;-76
2023/12/07 11:29:10;;;;;;;0.55;0.40;;;5.90;79.30;;;;;;4975241;28;20019;-74
2023/12/07 11:31:37;;;;;;;1.25;0.77;;;5.90;80.70;;;;;;4958360;28;20059;-76
2023/12/07 11:34:07;;;;;;;2.55;0.90;;;6.00;80.60;;;;;;4958618;28;20080;-76
2023/12/07 11:36:33;;;;;;;2.63;0.70;;;6.00;81.10;;;;;;4975337;28;20023;-76
2023/12/07 11:39:05;;;;;;;2.35;0.73;;;6.20;81.20;;;;;;4975285;28;20045;-76
2023/12/07 11:41:42;;;;;;;0.75;0.68;;;6.50;80.20;;;;;;4957997;28;20034;-76
2023/12/07 11:44:09;;;;;;;0.70;0.63;;;6.00;79.60;;;;;;4975452;28;20030;-75
2023/12/07 11:46:36;;;;;;;1.23;0.95;;;6.10;80.30;;;;;;4975198;28;20552;-76
2023/12/07 11:49:02;;;;;;;0.50;0.50;;;6.00;79.70;;;;;;4975455;28;20015;-77
2023/12/07 11:51:29;;;;;;;0.55;0.50;;;6.30;78.90;;;;;;4973864;28;20548;-76
2023/12/07 11:53:55;;;;;;;1.05;0.70;;;6.00;80.20;;;;;;4957561;28;20042;-75
2023/12/07 11:56:21;;;;;;;1.08;1.08;;;6.30;85.50;;;;;;4975050;28;20481;-75
2023/12/07 11:58:47;;;;;;;0.70;0.70;;;7.00;80.30;;;;;;4975348;28;20089;-75
2023/12/07 12:01:13;;;;;;;1.13;0.80;;;6.60;78.20;;;;;;4975024;28;20527;-76
2023/12/07 12:03:39;;;;;;;0.77;0.63;;;6.30;76.90;;;;;;4975040;28;20046;-76
2023/12/07 12:06:07;;;;;;;0.43;0.43;;;6.50;77.70;;;;;;4956941;28;20083;-76
2023/12/07 12:08:33;;;;;;;1.90;0.82;;;6.20;77.20;;;;;;4974507;28;20019;-76
2023/12/07 12:10:59;;;;;;;1.13;0.82;;;6.60;77.10;;;;;;4975712;28;20033;-80
2023/12/07 12:13:29;;;;;;;1.05;0.90;;;6.20;77.00;;;;;;4975695;28;20023;-78
2023/12/07 12:15:56;;;;;;;1.25;0.98;;;6.40;78.00;;;;;;4975181;28;20019;-78
2023/12/07 12:18:22;;;;;;;1.60;0.82;;;6.00;76.80;;;;;;4958917;28;20085;-76
2023/12/07 12:20:50;;;;;;;2.78;1.02;;;6.90;77.30;;;;;;4957678;28;20034;-77
2023/12/07 12:23:15;;;;;;;0.80;0.70;;;6.00;76.80;;;;;;4958486;28;20085;-76
2023/12/07 12:25:41;;;;;;;1.30;1.00;;;6.10;77.70;;;;;;4957496;28;20432;-75
2023/12/07 12:28:08;;;;;;;1.25;1.08;;;6.30;76.80;;;;;;4974043;28;20034;-75
2023/12/07 12:30:34;;;;;;;1.98;1.40;;;6.10;75.70;;;;;;4957049;28;20027;-76
2023/12/07 12:33:00;;;;;;;2.22;1.20;;;6.10;77.40;;;;;;4974155;28;20025;-76
2023/12/07 12:35:26;;;;;;;2.15;0.82;;;6.30;76.00;;;;;;4974406;28;20523;-75
2023/12/07 12:37:52;;;;;;;1.17;0.80;;;6.00;76.30;;;;;;4973144;28;20022;-76
2023/12/07 12:40:19;;;;;;;1.40;0.82;;;6.00;74.90;;;;;;4974271;28;20626;-75
2023/12/07 12:42:52;;;;;;;0.93;0.93;;;6.80;74.60;;;;;;4974232;28;20572;-77
2023/12/07 12:45:18;;;;;;;1.42;1.13;;;6.10;76.80;;;;;;4956487;28;20511;-76